createdAt,value
2019-04-21T00:03:18.150Z,10.20
2019-04-21T00:08:10.907Z,10.30
2019-04-21T00:12:40.529Z,10.20
2019-04-21T00:30:56.865Z,9.40
2019-04-21T00:35:17.606Z,9.80
2019-04-21T00:44:55.673Z,9.70
2019-04-21T00:49:26.956Z,9.10
2019-04-21T00:54:13.448Z,9.30
2019-04-21T01:03:20.604Z,9.70
2019-04-21T01:07:50.712Z,9.00
2019-04-21T01:39:53.226Z,8.90
2019-04-21T01:48:58.013Z,8.20
2019-04-21T01:58:18.281Z,8.30
2019-04-21T02:12:14.684Z,7.70
2019-04-21T02:30:49.252Z,7.90
2019-04-21T02:35:20.805Z,8.40
2019-04-21T02:58:28.752Z,7.70
2019-04-21T03:07:51.391Z,8.60
2019-04-21T03:16:42.652Z,8.00
2019-04-21T03:48:38.505Z,7.20
2019-04-21T03:53:05.240Z,7.40
2019-04-21T04:16:24.893Z,7.70
2019-04-21T04:25:33.799Z,7.70
2019-04-21T04:30:12.538Z,8.20
2019-04-21T04:34:47.784Z,7.60
2019-04-21T04:44:03.223Z,8.50
2019-04-21T05:11:23.391Z,8.30
2019-04-21T05:15:53.699Z,8.20
2019-04-21T05:24:44.295Z,8.70
2019-04-21T05:34:03.124Z,8.80
2019-04-21T05:43:25.608Z,9.00
2019-04-21T05:48:11.899Z,8.80
2019-04-21T06:01:47.065Z,9.40
2019-04-21T06:06:21.992Z,9.90
2019-04-21T06:29:06.931Z,10.30
2019-04-21T06:42:54.058Z,10.40
2019-04-21T06:51:55.977Z,11.80
2019-04-21T06:56:31.568Z,11.70
2019-04-21T07:05:35.842Z,11.20
2019-04-21T07:10:22.818Z,12.20
2019-04-21T07:28:17.721Z,12.90
2019-04-21T07:37:33.233Z,13.60
2019-04-21T07:41:59.560Z,12.90
2019-04-21T07:51:11.180Z,12.60
2019-04-21T08:09:12.375Z,14.30
2019-04-21T08:13:55.208Z,13.50
2019-04-21T08:31:56.499Z,14.50
2019-04-21T08:36:20.772Z,14.40
2019-04-21T08:40:55.904Z,14.40
2019-04-21T08:49:49.039Z,15.90
2019-04-21T08:59:21.863Z,14.40
2019-04-21T09:04:07.530Z,16.30
2019-04-21T09:08:55.430Z,17.10
2019-04-21T09:13:24.839Z,17.40
2019-04-21T09:17:58.023Z,17.20
2019-04-21T09:22:30.771Z,16.50
2019-04-21T09:27:11.327Z,16.30
2019-04-21T09:31:31.973Z,16.40
2019-04-21T09:36:02.584Z,16.90
2019-04-21T09:54:21.198Z,16.70
2019-04-21T10:12:19.997Z,17.50
2019-04-21T10:21:40.265Z,18.30
2019-04-21T10:35:09.342Z,18.60
2019-04-21T10:44:13.497Z,18.40
2019-04-21T10:58:16.171Z,16.30
2019-04-21T11:07:19.644Z,16.80
2019-04-21T11:16:26.947Z,16.90
2019-04-21T11:20:53.161Z,17.40
2019-04-21T11:25:06.993Z,18.50
2019-04-21T11:29:33.083Z,18.90
2019-04-21T11:33:53.375Z,18.00
2019-04-21T11:47:16.879Z,17.90
2019-04-21T11:51:37.325Z,18.20
2019-04-21T12:00:17.586Z,17.90
2019-04-21T12:04:43.492Z,17.70
2019-04-21T12:09:00.754Z,18.40
2019-04-21T12:13:26.337Z,17.70
2019-04-21T12:17:46.267Z,17.70
2019-04-21T12:22:21.574Z,17.30
2019-04-21T12:30:55.830Z,17.80
2019-04-21T12:35:28.419Z,17.70
2019-04-21T12:40:03.160Z,17.60
2019-04-21T12:49:09.787Z,17.80
2019-04-21T12:53:41.770Z,18.10
2019-04-21T12:58:15.445Z,17.40
2019-04-21T13:02:47.735Z,17.40
2019-04-21T13:07:21.520Z,18.30
2019-04-21T13:16:27.592Z,18.00
2019-04-21T13:21:02.173Z,17.80
2019-04-21T13:30:04.264Z,17.20
2019-04-21T13:34:40.005Z,17.60
2019-04-21T13:48:57.006Z,17.40
2019-04-21T13:53:28.567Z,18.20
2019-04-21T14:02:36.543Z,18.30
2019-04-21T14:16:32.038Z,18.20
2019-04-21T14:25:37.457Z,18.10
2019-04-21T14:30:08.506Z,18.30
2019-04-21T14:34:41.883Z,17.30
2019-04-21T14:43:48.083Z,16.00
2019-04-21T14:53:27.703Z,16.00
2019-04-21T14:58:01.699Z,15.90
2019-04-21T15:07:30.941Z,15.70
2019-04-21T15:12:03.342Z,15.70
2019-04-21T15:16:36.719Z,16.50
2019-04-21T15:21:08.038Z,16.50
2019-04-21T15:29:44.876Z,16.10
2019-04-21T15:38:49.665Z,16.70
2019-04-21T15:52:49.792Z,16.60
2019-04-21T15:57:31.400Z,17.00
2019-04-21T16:02:14.903Z,16.10
2019-04-21T16:06:47.903Z,16.60
2019-04-21T16:11:25.959Z,16.80
2019-04-21T16:20:32.329Z,16.30
2019-04-21T16:25:06.484Z,16.10
2019-04-21T16:34:12.060Z,15.40
2019-04-21T16:47:53.593Z,14.10
2019-04-21T17:06:17.394Z,12.70
2019-04-21T17:20:13.561Z,12.10
2019-04-21T17:24:35.786Z,11.40
2019-04-21T17:29:10.449Z,11.40
2019-04-21T17:38:16.301Z,10.60
2019-04-21T17:42:59.956Z,10.70
2019-04-21T17:47:54.480Z,10.70
2019-04-21T17:52:45.998Z,10.10
2019-04-21T17:57:32.294Z,10.00
2019-04-21T18:01:54.572Z,10.20
2019-04-21T18:11:00.300Z,10.60
2019-04-21T18:15:37.158Z,10.00
2019-04-21T18:29:01.210Z,9.30
2019-04-21T18:33:37.084Z,9.40
2019-04-21T18:38:20.791Z,9.20
2019-04-21T18:43:30.818Z,9.40
2019-04-21T18:47:48.854Z,9.30
2019-04-21T18:57:07.696Z,9.60
2019-04-21T19:06:11.471Z,9.00
2019-04-21T19:11:01.829Z,8.70
2019-04-21T19:15:30.972Z,8.60
2019-04-21T19:20:11.768Z,9.00
2019-04-21T19:33:36.124Z,9.00
2019-04-21T19:51:52.252Z,9.10
2019-04-21T19:56:15.935Z,9.10
2019-04-21T20:10:14.485Z,9.90
2019-04-21T20:51:18.069Z,8.40
2019-04-21T21:04:47.989Z,8.40
2019-04-21T21:14:07.491Z,8.10
2019-04-21T21:23:11.637Z,8.30
2019-04-21T21:27:45.605Z,8.80
2019-04-21T21:32:27.310Z,8.10
2019-04-21T21:50:29.760Z,7.90
2019-04-21T22:08:34.462Z,8.40
2019-04-21T22:22:22.861Z,8.10
2019-04-21T22:31:22.591Z,8.00
2019-04-21T22:36:44.714Z,8.30
2019-04-21T22:41:15.813Z,7.90
2019-04-21T22:45:40.995Z,8.30
2019-04-21T23:03:58.588Z,7.20
2019-04-21T23:13:05.629Z,7.80
2019-04-21T23:17:54.301Z,7.90
2019-04-21T23:54:01.820Z,7.30
